Time;durP1;ratioP1;P1;durP2;ratioP2;P2;SDS_P1;SDS_P2;PMS_P1;PMS_P2;Temp;Humidity;BMP_temperature;BMP_pressure;BME280_temperature;BME280_humidity;BME280_pressure;Samples;Min_cycle;Max_cycle;Signal;HPM_P1;HPM_P2
2022/12/12 00:01:25;;;;;;;3.90;3.60;;;13.60;61.30;;;;;;4990687;28;20073;-28
2022/12/12 00:03:51;;;;;;;4.00;3.80;;;13.60;61.20;;;;;;4985451;28;20529;-27
2022/12/12 00:06:17;;;;;;;3.35;3.15;;;13.60;61.20;;;;;;4987750;28;20117;-29
2022/12/12 00:08:42;;;;;;;3.40;3.20;;;13.60;61.30;;;;;;4987598;28;20399;-30
2022/12/12 00:11:08;;;;;;;3.60;3.40;;;13.70;61.20;;;;;;4986370;28;20137;-30
2022/12/12 00:13:34;;;;;;;3.65;3.38;;;13.60;61.10;;;;;;4987585;28;20400;-27
2022/12/12 00:15:59;;;;;;;3.40;3.20;;;13.60;61.10;;;;;;4986229;28;20031;-27
2022/12/12 00:18:25;;;;;;;3.55;3.35;;;13.60;61.10;;;;;;4986811;28;20115;-27
2022/12/12 00:20:54;;;;;;;3.60;3.30;;;13.60;61.00;;;;;;4984663;28;20089;-30
2022/12/12 00:23:20;;;;;;;3.20;3.00;;;13.60;61.10;;;;;;4985837;28;20084;-26
2022/12/12 00:25:55;;;;;;;3.17;2.97;;;13.70;60.90;;;;;;4988904;28;20078;-27
2022/12/12 00:28:21;;;;;;;3.00;2.80;;;13.60;60.80;;;;;;4984970;28;20042;-28
2022/12/12 00:30:46;;;;;;;3.20;2.97;;;13.60;60.80;;;;;;4988729;28;20415;-28
2022/12/12 00:33:12;;;;;;;2.90;2.70;;;13.70;60.90;;;;;;4991899;28;20054;-27
2022/12/12 00:35:37;;;;;;;3.30;3.10;;;13.70;60.90;;;;;;4989982;28;20050;-28
2022/12/12 00:38:03;;;;;;;3.13;2.92;;;13.70;60.80;;;;;;4990215;28;20030;-30
2022/12/12 00:40:29;;;;;;;3.22;3.03;;;13.70;60.90;;;;;;4992742;28;20141;-26
2022/12/12 00:42:54;;;;;;;3.13;2.92;;;13.60;61.00;;;;;;4990831;28;20511;-29
2022/12/12 00:45:20;;;;;;;2.90;2.70;;;13.60;60.90;;;;;;4990713;28;20053;-27
2022/12/12 00:47:45;;;;;;;3.00;2.80;;;13.60;61.00;;;;;;4995630;28;20045;-26
2022/12/12 00:50:11;;;;;;;2.50;2.40;;;13.60;60.90;;;;;;4989055;28;20046;-30
2022/12/12 00:52:37;;;;;;;3.08;2.88;;;13.70;60.80;;;;;;4991858;28;20042;-33
2022/12/12 00:55:03;;;;;;;3.20;3.00;;;13.70;60.70;;;;;;4989816;28;20037;-29
2022/12/12 00:57:28;;;;;;;2.92;2.70;;;13.60;60.70;;;;;;4995568;28;20630;-27
2022/12/12 00:59:54;;;;;;;3.50;3.30;;;13.60;60.70;;;;;;4992239;28;20038;-29
2022/12/12 01:02:19;;;;;;;2.70;2.60;;;13.70;60.60;;;;;;4990525;28;20042;-31
2022/12/12 01:04:45;;;;;;;2.60;2.50;;;13.70;60.60;;;;;;4991255;28;20060;-27
2022/12/12 01:07:11;;;;;;;3.10;2.90;;;13.60;60.70;;;;;;4988527;28;20154;-28
2022/12/12 01:09:36;;;;;;;3.13;2.85;;;13.60;60.60;;;;;;4987907;28;20042;-27
2022/12/12 01:12:02;;;;;;;2.85;2.65;;;13.60;60.70;;;;;;4990629;28;20042;-28
2022/12/12 01:14:27;;;;;;;2.72;2.53;;;13.60;60.60;;;;;;4991329;28;20034;-40
2022/12/12 01:16:53;;;;;;;2.70;2.50;;;13.60;60.70;;;;;;4991082;28;20499;-26
2022/12/12 01:19:19;;;;;;;2.42;2.33;;;13.70;60.50;;;;;;4990650;28;20129;-33
2022/12/12 01:21:44;;;;;;;3.17;2.97;;;13.60;60.50;;;;;;4987916;28;20500;-28
2022/12/12 01:24:10;;;;;;;2.83;2.65;;;13.60;60.60;;;;;;4989613;28;20046;-27
2022/12/12 01:26:36;;;;;;;2.60;2.50;;;13.70;60.50;;;;;;4986566;28;20093;-29
2022/12/12 01:29:02;;;;;;;2.22;2.13;;;13.60;60.60;;;;;;4992461;28;20125;-28
2022/12/12 01:31:27;;;;;;;2.78;2.67;;;13.60;60.60;;;;;;4989768;28;20465;-31
2022/12/12 01:33:53;;;;;;;2.40;2.30;;;13.60;60.50;;;;;;4989809;28;20109;-16
2022/12/12 01:36:19;;;;;;;2.38;2.28;;;13.60;60.60;;;;;;4989474;28;20043;-26
2022/12/12 01:38:45;;;;;;;2.70;2.53;;;13.60;60.70;;;;;;4987854;28;20109;-29
2022/12/12 01:41:11;;;;;;;2.70;2.50;;;13.50;60.50;;;;;;4987635;28;20042;-30
2022/12/12 01:43:37;;;;;;;2.70;2.60;;;13.50;60.60;;;;;;4991160;28;20054;-29
2022/12/12 01:46:29;;;;;;;2.40;2.30;;;13.60;60.60;;;;;;4990150;28;20052;-28
2022/12/12 01:49:18;;;;;;;2.58;2.40;;;13.60;60.40;;;;;;4983551;28;20759;-27
2022/12/12 01:51:43;;;;;;;2.70;2.50;;;13.70;60.20;;;;;;4990026;28;20065;-28
2022/12/12 01:54:30;;;;;;;2.90;2.80;;;13.60;60.30;;;;;;5016963;28;20072;-28
2022/12/12 01:56:56;;;;;;;2.38;2.28;;;13.60;60.30;;;;;;4983505;28;20034;-28
2022/12/12 01:59:23;;;;;;;2.55;2.45;;;13.60;60.30;;;;;;4990158;28;20511;-31
2022/12/12 02:01:49;;;;;;;2.00;1.90;;;13.60;60.30;;;;;;4990310;28;20088;-30
2022/12/12 02:04:14;;;;;;;2.80;2.60;;;13.60;60.20;;;;;;4987266;28;20546;-28
2022/12/12 02:06:41;;;;;;;2.30;2.20;;;13.60;60.20;;;;;;4991502;28;20085;-32
2022/12/12 02:09:09;;;;;;;2.20;2.10;;;13.60;60.30;;;;;;5000026;28;20047;-27
2022/12/12 02:11:40;;;;;;;2.17;2.08;;;13.60;60.30;;;;;;4989848;28;20049;-28
2022/12/12 02:14:06;;;;;;;2.20;2.10;;;13.60;60.20;;;;;;4989901;28;20054;-26
2022/12/12 02:16:55;;;;;;;2.08;1.98;;;13.60;60.20;;;;;;4991193;28;20524;-27
2022/12/12 02:19:39;;;;;;;2.47;2.38;;;13.60;60.30;;;;;;4985852;28;20507;-26
2022/12/12 02:22:29;;;;;;;2.25;2.15;;;13.60;60.20;;;;;;4986664;28;20038;-31
2022/12/12 02:25:23;;;;;;;2.40;2.30;;;13.60;60.30;;;;;;4986610;28;20038;-28
2022/12/12 02:28:10;;;;;;;2.13;2.03;;;13.60;60.30;;;;;;5013103;28;20062;-26
2022/12/12 02:30:59;;;;;;;2.05;1.95;;;13.50;60.20;;;;;;4986133;28;20038;-32
2022/12/12 02:33:32;;;;;;;2.30;2.20;;;13.60;60.30;;;;;;4981428;28;20038;-33
2022/12/12 02:36:18;;;;;;;2.03;1.92;;;13.60;60.40;;;;;;4986540;28;20042;-24
2022/12/12 02:39:04;;;;;;;1.98;1.88;;;13.60;60.20;;;;;;4986727;28;20038;-27
2022/12/12 02:42:02;;;;;;;1.80;1.70;;;13.60;60.20;;;;;;4975096;28;20594;-28
2022/12/12 02:44:49;;;;;;;2.10;2.00;;;13.60;60.30;;;;;;4972370;28;20054;-27
2022/12/12 02:47:36;;;;;;;2.20;2.10;;;13.60;60.30;;;;;;4987082;28;20141;-27
2022/12/12 02:50:21;;;;;;;2.20;2.10;;;13.60;60.20;;;;;;5009966;28;20042;-30
2022/12/12 02:52:47;;;;;;;1.80;1.70;;;13.60;60.10;;;;;;4985215;28;20042;-28
2022/12/12 02:55:14;;;;;;;2.00;1.90;;;13.60;60.00;;;;;;4986378;28;20050;-27
2022/12/12 02:57:40;;;;;;;2.28;2.17;;;13.60;60.20;;;;;;4989355;28;20046;-32
2022/12/12 03:00:08;;;;;;;2.10;2.00;;;13.50;60.10;;;;;;4988097;28;20054;-29
2022/12/12 03:09:04;;;;;;;1.73;1.63;;;13.60;60.00;;;;;;4982049;28;20037;-30
2022/12/12 03:11:54;;;;;;;1.60;1.52;;;13.60;60.00;;;;;;4986357;28;20050;-28
2022/12/12 03:14:31;;;;;;;1.80;1.70;;;13.50;60.10;;;;;;4969872;28;20722;-27
2022/12/12 03:17:05;;;;;;;1.70;1.60;;;13.50;60.00;;;;;;4971463;28;20575;-27
2022/12/12 03:19:52;;;;;;;1.70;1.60;;;13.50;60.00;;;;;;4986912;28;20050;-28
2022/12/12 03:22:20;;;;;;;1.70;1.60;;;13.50;60.10;;;;;;4987596;28;20046;-29
2022/12/12 03:25:13;;;;;;;1.90;1.80;;;13.50;60.20;;;;;;4986992;28;20045;-28
2022/12/12 03:27:41;;;;;;;1.75;1.65;;;13.50;60.10;;;;;;4989393;28;20050;-26
2022/12/12 03:30:10;;;;;;;1.50;1.48;;;13.50;60.10;;;;;;4983199;28;20041;-27
2022/12/12 03:32:45;;;;;;;1.65;1.55;;;13.50;60.00;;;;;;4983584;28;20047;-26
2022/12/12 03:35:19;;;;;;;1.30;1.30;;;13.60;59.90;;;;;;4986394;28;20112;-28
2022/12/12 03:37:50;;;;;;;1.77;1.67;;;13.50;60.10;;;;;;4980407;28;20503;-27
2022/12/12 03:40:23;;;;;;;1.80;1.70;;;13.40;60.20;;;;;;4982013;28;20043;-27
2022/12/12 03:42:54;;;;;;;1.63;1.53;;;13.50;60.20;;;;;;5014667;28;20300;-27
2022/12/12 03:45:24;;;;;;;1.83;1.73;;;13.50;60.10;;;;;;4986114;28;20092;-29
2022/12/12 03:47:55;;;;;;;1.55;1.50;;;13.60;59.90;;;;;;4986338;28;20066;-28
2022/12/12 03:50:23;;;;;;;1.40;1.30;;;13.50;59.90;;;;;;4984678;28;20065;-25
2022/12/12 03:53:01;;;;;;;1.55;1.45;;;13.50;59.90;;;;;;5013470;28;20125;-28
2022/12/12 03:55:33;;;;;;;1.70;1.60;;;13.50;59.90;;;;;;4997716;28;20041;-27
2022/12/12 03:58:01;;;;;;;1.35;1.25;;;13.50;59.90;;;;;;4986708;28;20050;-29
2022/12/12 04:00:27;;;;;;;1.52;1.42;;;13.50;59.90;;;;;;4985183;28;20045;-26
2022/12/12 04:02:57;;;;;;;1.40;1.30;;;13.50;60.00;;;;;;4988455;28;20050;-28
2022/12/12 04:05:26;;;;;;;1.67;1.58;;;13.50;60.50;;;;;;4986994;28;20101;-29
2022/12/12 04:08:06;;;;;;;1.27;1.25;;;13.50;60.10;;;;;;4983111;28;20073;-27
2022/12/12 04:13:42;;;;;;;1.70;1.60;;;13.40;60.30;;;;;;4985564;28;20062;-27
2022/12/12 04:16:10;;;;;;;1.42;1.35;;;13.40;60.00;;;;;;4985087;28;20428;-35
2022/12/12 04:18:53;;;;;;;1.42;1.33;;;13.50;60.00;;;;;;4987411;28;20035;-26
2022/12/12 04:24:22;;;;;;;1.25;1.15;;;13.40;60.10;;;;;;4986253;28;20045;-31
2022/12/12 04:26:53;;;;;;;;;;;13.40;60.00;;;;;;4986549;28;20172;-29
2022/12/12 04:29:25;;;;;;;1.23;1.23;;;13.40;60.00;;;;;;4983745;28;19928;-27
2022/12/12 04:31:53;;;;;;;1.08;1.08;;;13.40;60.20;;;;;;4977861;28;20038;-26
2022/12/12 04:34:28;;;;;;;1.67;1.58;;;13.40;60.20;;;;;;4987903;28;20054;-27
2022/12/12 04:36:54;;;;;;;1.10;1.10;;;13.40;60.00;;;;;;4966695;28;20046;-27
2022/12/12 04:39:20;;;;;;;1.30;1.30;;;13.40;60.10;;;;;;4985984;28;20050;-26
2022/12/12 04:41:46;;;;;;;1.55;1.45;;;13.40;59.90;;;;;;4984565;28;20565;-28
2022/12/12 04:44:12;;;;;;;1.35;1.25;;;13.50;59.80;;;;;;4984335;28;20112;-27
2022/12/12 04:46:37;;;;;;;1.45;1.35;;;13.40;59.90;;;;;;4989193;28;20117;-31
2022/12/12 04:49:11;;;;;;;1.40;1.40;;;13.40;60.00;;;;;;4981179;28;20053;-29
2022/12/12 04:51:41;;;;;;;1.00;1.00;;;13.40;60.20;;;;;;4985196;28;20049;-29
2022/12/12 04:54:18;;;;;;;1.40;1.30;;;13.30;60.10;;;;;;4981473;28;20050;-31
2022/12/12 04:56:44;;;;;;;1.50;1.40;;;13.40;60.40;;;;;;4986704;28;20045;-28
2022/12/12 04:59:10;;;;;;;1.30;1.27;;;13.30;60.00;;;;;;4985711;28;20042;-26
2022/12/12 05:01:59;;;;;;;1.27;1.27;;;13.30;60.20;;;;;;4984786;28;20100;-34
2022/12/12 05:04:32;;;;;;;1.40;1.38;;;13.30;60.30;;;;;;4985094;28;20065;-28
2022/12/12 05:07:01;;;;;;;1.48;1.38;;;13.30;60.30;;;;;;4987135;28;20574;-26
2022/12/12 05:09:27;;;;;;;1.00;1.00;;;13.30;60.10;;;;;;4986653;28;20050;-30
2022/12/12 05:11:52;;;;;;;1.02;1.02;;;13.30;60.10;;;;;;4989402;28;20042;-30
2022/12/12 05:14:18;;;;;;;1.10;1.10;;;13.40;60.00;;;;;;4988421;28;20042;-28
2022/12/12 05:16:49;;;;;;;1.20;1.10;;;13.30;60.10;;;;;;5017366;28;20042;-27
2022/12/12 05:19:14;;;;;;;1.20;1.20;;;13.30;60.20;;;;;;4987439;28;20038;-27
2022/12/12 05:21:40;;;;;;;1.48;1.38;;;13.30;60.10;;;;;;4990384;28;20049;-27
2022/12/12 05:24:06;;;;;;;0.98;0.98;;;13.40;60.00;;;;;;4986332;28;20045;-28
2022/12/12 05:26:32;;;;;;;1.27;1.27;;;13.30;59.90;;;;;;4987744;28;20057;-27
2022/12/12 05:28:58;;;;;;;1.10;1.10;;;13.30;60.00;;;;;;4987574;28;20050;-28
2022/12/12 05:31:23;;;;;;;2.55;1.20;;;13.30;60.00;;;;;;4989835;28;20049;-27
2022/12/12 05:33:49;;;;;;;1.33;1.23;;;13.30;60.10;;;;;;4993311;28;20035;-25
2022/12/12 05:36:15;;;;;;;1.20;1.20;;;13.30;60.00;;;;;;4988025;28;20141;-27
2022/12/12 05:38:40;;;;;;;1.10;1.10;;;13.30;60.00;;;;;;4989977;28;20523;-27
2022/12/12 05:41:06;;;;;;;1.50;1.40;;;13.30;60.00;;;;;;4991462;28;20058;-40
2022/12/12 05:43:32;;;;;;;1.08;1.08;;;13.30;59.90;;;;;;4990433;28;20046;-30
2022/12/12 05:45:58;;;;;;;1.20;1.20;;;13.30;60.10;;;;;;4990903;28;20137;-27
2022/12/12 05:48:24;;;;;;;1.00;1.00;;;13.30;60.10;;;;;;4989304;28;20512;-28
2022/12/12 05:50:50;;;;;;;0.88;0.88;;;13.30;60.10;;;;;;4985601;28;20053;-26
2022/12/12 05:53:15;;;;;;;1.00;1.00;;;13.30;60.10;;;;;;4989480;28;20458;-32
2022/12/12 05:55:41;;;;;;;1.10;1.10;;;13.30;60.00;;;;;;4988471;28;20149;-30
2022/12/12 05:58:07;;;;;;;1.17;1.17;;;13.30;59.90;;;;;;4990166;28;20050;-29
2022/12/12 06:00:32;;;;;;;0.98;0.98;;;13.40;60.00;;;;;;4987039;28;20069;-27
2022/12/12 06:02:58;;;;;;;1.13;1.13;;;13.30;59.90;;;;;;4990350;28;20121;-27
2022/12/12 06:05:23;;;;;;;0.98;0.98;;;13.30;59.90;;;;;;4990482;28;20098;-28
2022/12/12 06:07:49;;;;;;;1.00;1.00;;;13.40;59.90;;;;;;4988649;28;20508;-28
2022/12/12 06:10:14;;;;;;;1.10;1.10;;;13.40;60.00;;;;;;4988736;28;20038;-27
2022/12/12 06:12:40;;;;;;;1.00;1.00;;;13.40;61.20;;;;;;4987717;28;20454;-29
2022/12/12 06:15:07;;;;;;;1.42;1.33;;;13.30;62.20;;;;;;4988527;28;20499;-28
2022/12/12 06:17:32;;;;;;;4.65;4.13;;;13.40;64.10;;;;;;4987943;28;20129;-29
2022/12/12 06:19:58;;;;;;;4.00;3.70;;;13.40;63.50;;;;;;4987012;28;20133;-29
2022/12/12 06:22:24;;;;;;;4.07;3.50;;;13.40;63.30;;;;;;4985982;28;20953;-27
2022/12/12 06:24:49;;;;;;;4.10;3.42;;;13.40;63.50;;;;;;4993104;28;20035;-29
2022/12/12 06:27:15;;;;;;;4.78;4.35;;;13.40;63.20;;;;;;4989854;28;21477;-28
2022/12/12 06:29:40;;;;;;;6.60;4.13;;;13.40;63.20;;;;;;4988403;28;20068;-28
2022/12/12 06:32:06;;;;;;;4.80;3.92;;;13.40;63.30;;;;;;4992554;28;20054;-29
2022/12/12 06:34:32;;;;;;;6.35;4.60;;;13.50;62.90;;;;;;4986263;28;20054;-31
2022/12/12 06:36:57;;;;;;;5.90;4.97;;;13.40;63.80;;;;;;4989141;28;20476;-29
2022/12/12 06:39:23;;;;;;;7.13;5.00;;;13.40;64.00;;;;;;4983013;28;20050;-28
2022/12/12 06:41:48;;;;;;;6.85;4.70;;;13.50;64.30;;;;;;4983236;28;20046;-29
2022/12/12 06:44:14;;;;;;;7.95;5.00;;;13.60;63.90;;;;;;4634464;28;9999982;-31
2022/12/12 06:46:40;;;;;;;5.38;4.60;;;13.60;64.30;;;;;;4979888;28;20046;-29
2022/12/12 06:49:08;;;;;;;5.55;4.10;;;13.50;64.50;;;;;;4984928;28;20046;-28
2022/12/12 06:51:36;;;;;;;4.90;4.50;;;13.40;64.50;;;;;;4980233;28;20038;-28
2022/12/12 06:54:01;;;;;;;5.35;4.13;;;13.50;64.60;;;;;;4983398;28;20487;-16
2022/12/12 06:56:27;;;;;;;6.07;4.15;;;13.50;64.30;;;;;;4982803;28;20042;-16
2022/12/12 06:58:53;;;;;;;8.77;4.20;;;13.50;64.40;;;;;;4984241;28;20034;-16
2022/12/12 07:01:20;;;;;;;4.40;4.00;;;13.50;64.20;;;;;;4979074;28;20608;-16
2022/12/12 07:03:46;;;;;;;5.40;4.10;;;13.50;64.00;;;;;;4981315;28;20729;-15
2022/12/12 07:06:12;;;;;;;4.15;3.72;;;13.50;64.00;;;;;;4978647;28;20097;-16
2022/12/12 07:08:37;;;;;;;4.70;4.30;;;13.50;64.00;;;;;;4983681;28;20058;-15
2022/12/12 07:11:07;;;;;;;4.55;4.15;;;13.60;63.80;;;;;;4979559;28;20053;-17
2022/12/12 07:13:34;;;;;;;4.15;3.80;;;13.50;63.70;;;;;;4978229;28;20061;-16
2022/12/12 07:15:59;;;;;;;4.90;4.50;;;13.50;63.80;;;;;;4979224;28;20085;-16
2022/12/12 07:18:25;;;;;;;5.20;4.03;;;13.50;63.60;;;;;;4977215;28;20759;-16
2022/12/12 07:20:50;;;;;;;3.95;3.67;;;13.50;63.50;;;;;;4981830;28;20050;-16
2022/12/12 07:23:16;;;;;;;4.13;3.63;;;13.50;63.50;;;;;;4979816;28;20047;-16
2022/12/12 07:25:43;;;;;;;5.25;3.47;;;13.50;63.60;;;;;;4981926;28;20407;-16
2022/12/12 07:28:09;;;;;;;4.20;3.80;;;13.40;63.60;;;;;;4981400;28;20381;-16
2022/12/12 07:30:38;;;;;;;3.78;3.47;;;13.40;63.60;;;;;;4977954;28;20054;-16
2022/12/12 07:33:03;;;;;;;3.85;3.50;;;13.60;63.40;;;;;;4978399;28;20049;-16
2022/12/12 07:35:29;;;;;;;4.60;3.63;;;13.60;63.20;;;;;;4984314;28;20385;-19
2022/12/12 07:37:55;;;;;;;3.70;3.40;;;13.50;63.20;;;;;;4987958;28;20046;-16
2022/12/12 07:40:21;;;;;;;3.45;3.15;;;13.50;63.20;;;;;;4990462;28;20049;-19
2022/12/12 07:42:47;;;;;;;6.40;3.38;;;13.50;63.10;;;;;;4989018;28;20049;-16
2022/12/12 07:45:13;;;;;;;3.50;3.20;;;13.50;63.00;;;;;;4986630;28;20031;-17
2022/12/12 07:47:38;;;;;;;3.80;3.40;;;13.50;63.20;;;;;;4989715;28;20065;-16
2022/12/12 07:50:04;;;;;;;3.42;3.08;;;13.50;63.00;;;;;;4988502;28;20053;-16
2022/12/12 07:52:30;;;;;;;3.72;3.00;;;13.60;62.80;;;;;;4987033;28;20574;-17
2022/12/12 07:54:56;;;;;;;5.65;3.28;;;13.60;62.70;;;;;;4987667;28;20060;-16
2022/12/12 07:57:21;;;;;;;3.88;3.50;;;13.60;62.70;;;;;;4988897;28;20554;-16
2022/12/12 07:59:47;;;;;;;6.03;3.15;;;13.60;62.60;;;;;;4988192;28;20124;-16
2022/12/12 08:02:12;;;;;;;3.40;3.10;;;13.60;63.20;;;;;;4990108;28;20042;-16
2022/12/12 08:04:38;;;;;;;3.10;2.90;;;13.60;62.40;;;;;;4988063;28;20042;-16
2022/12/12 08:07:04;;;;;;;3.10;2.90;;;13.60;62.30;;;;;;4992377;28;20125;-16
2022/12/12 08:09:29;;;;;;;4.07;3.17;;;13.60;62.20;;;;;;4987493;28;20046;-16
2022/12/12 08:11:57;;;;;;;3.53;3.22;;;13.60;62.20;;;;;;4992007;28;20049;-16
2022/12/12 08:14:23;;;;;;;3.03;2.83;;;13.60;62.30;;;;;;4987492;28;20380;-16
2022/12/12 08:16:49;;;;;;;2.97;2.78;;;13.60;62.30;;;;;;4988565;28;20541;-16
2022/12/12 08:19:14;;;;;;;4.68;3.40;;;13.60;62.30;;;;;;4987921;28;20043;-16
2022/12/12 08:21:41;;;;;;;3.10;2.90;;;13.60;63.00;;;;;;4987529;28;20046;-16
2022/12/12 08:24:07;;;;;;;3.13;2.90;;;13.60;62.10;;;;;;4988038;28;20420;-16
2022/12/12 08:26:33;;;;;;;3.08;2.88;;;13.50;62.20;;;;;;4988392;28;20085;-16
2022/12/12 08:28:59;;;;;;;3.25;2.80;;;13.50;62.10;;;;;;4986915;28;20090;-16
2022/12/12 08:31:24;;;;;;;2.53;2.33;;;13.60;61.90;;;;;;4987353;28;20047;-16
2022/12/12 08:33:50;;;;;;;3.72;2.60;;;13.50;62.00;;;;;;4989022;28;20046;-16
2022/12/12 08:36:17;;;;;;;2.88;2.67;;;13.60;61.90;;;;;;4990817;28;20057;-16
2022/12/12 08:38:43;;;;;;;2.83;2.60;;;13.50;62.10;;;;;;4983451;28;20070;-16
2022/12/12 08:41:09;;;;;;;2.95;2.75;;;13.50;62.10;;;;;;4986316;28;20189;-16
2022/12/12 08:43:36;;;;;;;2.25;2.15;;;13.50;62.90;;;;;;4986788;28;20133;-16
2022/12/12 08:46:02;;;;;;;2.80;2.60;;;13.60;61.70;;;;;;4987398;28;20045;-16
2022/12/12 08:48:29;;;;;;;2.63;2.40;;;13.60;61.70;;;;;;4993393;28;20143;-16
2022/12/12 08:50:55;;;;;;;2.47;2.28;;;13.60;61.70;;;;;;4990724;28;20054;-17
2022/12/12 08:53:21;;;;;;;2.75;2.55;;;13.50;61.80;;;;;;4991764;28;20038;-16
2022/12/12 08:55:46;;;;;;;2.83;2.63;;;13.50;61.90;;;;;;4991565;28;20096;-16
2022/12/12 08:58:12;;;;;;;3.03;2.30;;;13.50;61.80;;;;;;4993452;28;22029;-22
2022/12/12 09:00:38;;;;;;;2.63;2.42;;;13.50;61.60;;;;;;4990224;28;20111;-16
2022/12/12 09:03:03;;;;;;;2.80;2.60;;;13.50;61.60;;;;;;4990842;28;20042;-16
2022/12/12 09:05:29;;;;;;;2.35;2.25;;;13.50;61.50;;;;;;4991221;28;20129;-16
2022/12/12 09:07:54;;;;;;;2.08;1.98;;;13.50;61.40;;;;;;4991172;28;20050;-16
2022/12/12 09:10:20;;;;;;;2.60;2.40;;;13.50;61.70;;;;;;4990146;28;20049;-15
2022/12/12 09:12:46;;;;;;;2.75;2.55;;;13.50;61.60;;;;;;4991462;28;21092;-16
2022/12/12 09:15:11;;;;;;;2.75;2.55;;;13.50;61.50;;;;;;4992550;28;20046;-16
2022/12/12 09:17:37;;;;;;;2.20;2.10;;;13.50;61.50;;;;;;4990149;28;20038;-16
2022/12/12 09:20:03;;;;;;;2.70;2.50;;;13.50;61.40;;;;;;4992326;28;20111;-16
2022/12/12 09:22:28;;;;;;;2.20;2.10;;;13.50;61.50;;;;;;5005151;28;20042;-16
2022/12/12 09:24:54;;;;;;;2.35;2.25;;;13.50;61.30;;;;;;4990563;28;20400;-15
2022/12/12 09:27:19;;;;;;;2.35;2.25;;;13.60;61.10;;;;;;4991592;28;20054;-16
2022/12/12 09:29:45;;;;;;;2.72;2.42;;;13.60;61.10;;;;;;4990483;28;20512;-16
2022/12/12 09:32:10;;;;;;;2.28;2.17;;;13.50;61.10;;;;;;4989988;28;20046;-15
2022/12/12 09:34:37;;;;;;;2.38;2.28;;;13.50;61.20;;;;;;4987351;28;20128;-16
2022/12/12 09:37:02;;;;;;;2.03;1.92;;;13.50;61.20;;;;;;4985504;28;20065;-16
2022/12/12 09:39:28;;;;;;;2.08;1.98;;;13.50;61.10;;;;;;4985570;28;20108;-16
2022/12/12 09:41:54;;;;;;;2.13;2.03;;;13.50;61.20;;;;;;4990642;28;20057;-15
2022/12/12 09:44:21;;;;;;;2.65;2.55;;;13.50;61.20;;;;;;4990879;28;20038;-16
2022/12/12 09:46:56;;;;;;;2.30;2.20;;;13.50;60.90;;;;;;4989709;28;20137;-16
2022/12/12 09:49:26;;;;;;;2.78;2.30;;;13.50;60.90;;;;;;4985714;28;20043;-16
2022/12/12 09:51:52;;;;;;;2.35;2.15;;;13.50;60.90;;;;;;4989493;28;20161;-16
2022/12/12 09:54:19;;;;;;;1.98;1.88;;;13.50;61.00;;;;;;4989196;28;20109;-16
2022/12/12 09:56:57;;;;;;;2.10;2.00;;;13.50;61.00;;;;;;4991338;28;20125;-16
2022/12/12 09:59:34;;;;;;;2.30;2.20;;;13.50;61.00;;;;;;4987770;28;20042;-16
2022/12/12 10:02:11;;;;;;;2.20;2.00;;;13.50;60.90;;;;;;4985629;28;20106;-16
2022/12/12 10:05:21;;;;;;;2.00;1.90;;;13.40;60.90;;;;;;4988009;28;20526;-17
2022/12/12 10:08:46;;;;;;;2.00;1.90;;;13.40;60.90;;;;;;4986334;28;20129;-16
2022/12/12 10:13:59;;;;;;;2.20;2.10;;;13.40;60.90;;;;;;4933629;29;20067;-16
2022/12/12 10:16:24;;;;;;;2.00;1.90;;;13.40;60.80;;;;;;4913765;28;20046;-16
2022/12/12 10:18:51;;;;;;;2.20;2.10;;;13.40;60.90;;;;;;4958512;28;20047;-16
2022/12/12 10:21:22;;;;;;;1.95;1.85;;;13.50;60.80;;;;;;4930611;29;20051;-16
2022/12/12 10:23:49;;;;;;;1.65;1.55;;;13.40;60.70;;;;;;4931647;29;20469;-16
2022/12/12 10:26:24;;;;;;;2.13;2.03;;;13.40;60.70;;;;;;4929956;29;20102;-16
2022/12/12 10:28:52;;;;;;;1.90;1.80;;;13.40;60.90;;;;;;4947222;28;20128;-16
2022/12/12 10:31:42;;;;;;;1.90;1.80;;;13.40;60.90;;;;;;4930220;29;20723;-16
2022/12/12 10:34:13;;;;;;;1.95;1.75;;;13.40;60.90;;;;;;4945925;28;20074;-16
2022/12/12 10:37:06;;;;;;;1.80;1.70;;;13.40;60.80;;;;;;4946749;28;20039;-16
2022/12/12 10:39:41;;;;;;;1.98;1.88;;;13.40;60.80;;;;;;4945991;29;20073;-16
2022/12/12 10:42:58;;;;;;;1.88;1.77;;;13.40;60.80;;;;;;4976647;28;20038;-15
2022/12/12 10:45:42;;;;;;;1.58;1.48;;;13.40;60.70;;;;;;4965654;28;20097;-15
2022/12/12 10:48:08;;;;;;;1.77;1.67;;;13.40;60.70;;;;;;4969415;28;20408;-16
2022/12/12 10:50:39;;;;;;;2.25;2.15;;;13.40;60.60;;;;;;4985419;28;20046;-16
2022/12/12 10:53:06;;;;;;;2.72;1.60;;;13.40;60.60;;;;;;4970883;28;20047;-15
2022/12/12 10:55:52;;;;;;;1.80;1.70;;;13.40;60.50;;;;;;4987227;28;20046;-15
2022/12/12 10:58:18;;;;;;;2.03;1.92;;;13.40;60.50;;;;;;4986013;28;20038;-16
2022/12/12 11:00:44;;;;;;;1.80;1.70;;;13.40;60.60;;;;;;4984928;28;20109;-16
2022/12/12 11:03:25;;;;;;;2.00;1.90;;;13.40;60.60;;;;;;4972287;28;21245;-16
2022/12/12 11:05:51;;;;;;;2.33;1.95;;;13.40;60.60;;;;;;4984221;28;20061;-16
2022/12/12 11:08:20;;;;;;;2.03;1.92;;;13.40;60.30;;;;;;4971923;28;20043;-16
2022/12/12 11:10:46;;;;;;;2.20;2.10;;;13.40;60.30;;;;;;4985708;28;20057;-16
2022/12/12 11:13:15;;;;;;;2.13;1.98;;;13.40;60.40;;;;;;4971013;28;20034;-16
2022/12/12 11:16:07;;;;;;;1.90;1.80;;;13.40;60.40;;;;;;4981614;28;20038;-16
2022/12/12 11:18:32;;;;;;;2.05;1.95;;;13.40;60.40;;;;;;4976999;28;20043;-15
2022/12/12 11:21:04;;;;;;;2.13;1.92;;;13.40;60.50;;;;;;4989141;28;20061;-16
2022/12/12 11:23:30;;;;;;;2.00;1.90;;;13.30;60.40;;;;;;4988752;28;20047;-16
2022/12/12 11:25:59;;;;;;;2.15;2.05;;;13.40;60.40;;;;;;4987310;28;20038;-16
2022/12/12 11:28:26;;;;;;;2.33;2.13;;;13.40;60.40;;;;;;4988418;28;20035;-17
2022/12/12 11:30:53;;;;;;;2.33;2.20;;;13.40;60.30;;;;;;4985205;28;20499;-16
2022/12/12 11:33:49;;;;;;;2.20;2.00;;;13.40;60.30;;;;;;4986293;28;20051;-16
2022/12/12 11:36:23;;;;;;;2.13;2.03;;;13.30;60.40;;;;;;4994183;28;20042;-16
2022/12/12 11:38:50;;;;;;;2.10;2.00;;;13.30;60.50;;;;;;4988290;28;20058;-16
2022/12/12 11:41:16;;;;;;;2.13;2.03;;;13.30;60.40;;;;;;5010358;28;20058;-15
2022/12/12 11:43:47;;;;;;;2.25;2.15;;;13.30;60.30;;;;;;4987615;28;20095;-16
2022/12/12 11:46:13;;;;;;;3.05;2.28;;;13.30;60.30;;;;;;4988496;28;20050;-16
2022/12/12 11:48:50;;;;;;;2.20;2.10;;;13.30;60.20;;;;;;4987598;28;20389;-16
2022/12/12 11:51:41;;;;;;;2.20;2.10;;;13.30;60.20;;;;;;4987562;28;20046;-16
2022/12/12 11:54:25;;;;;;;2.25;2.15;;;13.40;60.30;;;;;;4988511;28;20053;-16
2022/12/12 11:56:56;;;;;;;2.33;2.22;;;13.30;60.30;;;;;;5013401;28;20084;-16
2022/12/12 11:59:43;;;;;;;2.50;2.40;;;13.30;60.20;;;;;;4989084;28;20061;-16
2022/12/12 12:02:43;;;;;;;2.30;2.20;;;13.30;60.20;;;;;;4986802;28;20045;-16
2022/12/12 12:05:43;;;;;;;2.33;2.22;;;13.30;60.10;;;;;;4981322;28;20046;-16
2022/12/12 12:08:15;;;;;;;2.67;2.58;;;13.30;60.20;;;;;;4985905;28;20171;-17
2022/12/12 12:11:02;;;;;;;2.75;2.65;;;13.20;60.20;;;;;;4981484;28;20515;-16
2022/12/12 12:13:38;;;;;;;2.30;2.20;;;13.30;60.30;;;;;;4984053;28;20479;-16
2022/12/12 12:16:15;;;;;;;2.47;2.38;;;13.20;60.30;;;;;;4987007;28;20097;-16
2022/12/12 12:19:14;;;;;;;2.72;2.63;;;13.30;60.30;;;;;;4987174;28;20053;-16
2022/12/12 12:21:50;;;;;;;2.25;2.15;;;13.30;60.30;;;;;;4987910;28;20062;-16
2022/12/12 12:24:34;;;;;;;2.10;2.00;;;13.30;60.30;;;;;;5006513;28;20129;-16
2022/12/12 12:27:34;;;;;;;2.20;2.10;;;13.20;60.30;;;;;;4989545;28;20066;-15
2022/12/12 12:30:21;;;;;;;2.55;2.45;;;13.20;60.30;;;;;;4987567;28;20050;-15
2022/12/12 12:33:05;;;;;;;2.50;2.40;;;13.20;60.30;;;;;;4991423;28;20495;-25
2022/12/12 12:35:44;;;;;;;3.35;2.53;;;13.20;60.30;;;;;;4990743;28;20086;-16
2022/12/12 12:38:19;;;;;;;2.85;2.65;;;13.20;60.10;;;;;;4996463;28;20052;-15
2022/12/12 12:40:55;;;;;;;2.90;2.70;;;13.20;60.20;;;;;;4994206;28;20400;-16
2022/12/12 12:43:37;;;;;;;2.30;2.20;;;13.20;60.20;;;;;;4989598;28;20093;-21
2022/12/12 12:46:24;;;;;;;2.13;2.03;;;13.20;60.20;;;;;;4984180;28;20419;-16
2022/12/12 12:48:54;;;;;;;2.65;2.45;;;13.20;60.30;;;;;;4987847;28;20503;-16
2022/12/12 12:51:30;;;;;;;2.30;2.20;;;13.30;60.10;;;;;;4991006;28;20046;-16
2022/12/12 12:54:04;;;;;;;2.63;2.53;;;13.30;60.10;;;;;;4990057;28;20049;-16
2022/12/12 12:56:35;;;;;;;3.08;2.88;;;13.20;60.10;;;;;;4990342;28;20570;-16
2022/12/12 12:59:03;;;;;;;3.00;2.80;;;13.20;60.00;;;;;;4991434;28;20042;-16
2022/12/12 13:01:42;;;;;;;3.00;2.80;;;13.20;60.10;;;;;;4970911;28;20504;-16
2022/12/12 13:04:15;;;;;;;2.55;2.42;;;13.20;60.10;;;;;;5002498;28;20046;-18
2022/12/12 13:06:45;;;;;;;2.45;2.35;;;13.30;60.10;;;;;;4989445;28;20053;-16
2022/12/12 13:09:15;;;;;;;2.30;2.17;;;13.20;60.10;;;;;;4985672;28;20066;-18
2022/12/12 13:11:43;;;;;;;2.67;2.53;;;13.20;60.10;;;;;;4989267;28;20105;-15
2022/12/12 13:14:13;;;;;;;2.38;2.28;;;13.20;60.20;;;;;;4985296;28;20042;-25
2022/12/12 13:16:39;;;;;;;2.33;2.22;;;13.20;60.10;;;;;;4988625;28;20138;-17
2022/12/12 13:19:09;;;;;;;2.45;2.35;;;13.20;60.10;;;;;;4989440;28;20050;-17
2022/12/12 13:21:43;;;;;;;2.33;2.17;;;13.30;60.20;;;;;;4985778;28;20104;-16